Terminal Aerodrome Forecast
Issued by NWS Wilmington, OH

Current Version | Previous Version | Graphics & Text | Print | Product List | Glossary On
Versions: 1 2 3 4 5 6 7 8 9 10 11 12 13 14 15 16 17 18 19 20 21 22 23 24 25 26
617
FTUS41 KILN 142333
TAFCVG
TAF
KCVG 142333Z 1500/1606 19007KT P6SM SCT250
     FM150400 19009KT P6SM SCT250 WS020/21035KT
     FM151200 21013G22KT P6SM BKN090 WS020/23040KT
     FM151300 21014G24KT P6SM VCSH BKN060
     FM151600 24016G26KT P6SM -SHRA OVC026
     FM151900 27015G24KT P6SM OVC035
     FM160200 32010KT P6SM SCT100=

USA.gov is the U.S. government's official web portal to all federal, state and local government web resources and services.